sensor_id;sensor_type;location;lat;lon;timestamp;P1;durP1;ratioP1;P2;durP2;ratioP2
54923;SDS011;40825;52.270;20.984;2023-03-14T00:02:03;10.40;;;4.00;;
54923;SDS011;40825;52.270;20.984;2023-03-14T00:04:28;11.20;;;3.80;;
54923;SDS011;40825;52.270;20.984;2023-03-14T00:06:53;9.80;;;4.20;;
54923;SDS011;40825;52.270;20.984;2023-03-14T00:09:19;10.80;;;3.90;;
54923;SDS011;40825;52.270;20.984;2023-03-14T00:11:44;9.70;;;3.40;;
54923;SDS011;40825;52.270;20.984;2023-03-14T00:14:11;9.00;;;3.70;;
54923;SDS011;40825;52.270;20.984;2023-03-14T00:16:36;9.50;;;3.90;;
54923;SDS011;40825;52.270;20.984;2023-03-14T00:19:02;10.20;;;3.80;;
54923;SDS011;40825;52.270;20.984;2023-03-14T00:21:27;9.60;;;4.00;;
54923;SDS011;40825;52.270;20.984;2023-03-14T00:23:53;10.70;;;3.90;;
54923;SDS011;40825;52.270;20.984;2023-03-14T00:26:19;11.40;;;4.30;;
54923;SDS011;40825;52.270;20.984;2023-03-14T00:28:47;10.00;;;4.20;;
54923;SDS011;40825;52.270;20.984;2023-03-14T00:31:16;10.30;;;4.30;;
54923;SDS011;40825;52.270;20.984;2023-03-14T00:33:42;10.20;;;4.30;;
54923;SDS011;40825;52.270;20.984;2023-03-14T00:36:10;12.00;;;4.90;;
54923;SDS011;40825;52.270;20.984;2023-03-14T00:38:38;10.80;;;4.40;;
54923;SDS011;40825;52.270;20.984;2023-03-14T00:41:15;12.20;;;5.00;;
54923;SDS011;40825;52.270;20.984;2023-03-14T00:43:42;10.80;;;4.60;;
54923;SDS011;40825;52.270;20.984;2023-03-14T00:46:08;9.80;;;4.70;;
54923;SDS011;40825;52.270;20.984;2023-03-14T00:48:34;11.40;;;4.70;;
54923;SDS011;40825;52.270;20.984;2023-03-14T00:51:01;12.90;;;4.60;;
54923;SDS011;40825;52.270;20.984;2023-03-14T00:53:28;10.40;;;4.50;;
54923;SDS011;40825;52.270;20.984;2023-03-14T00:55:53;10.10;;;4.20;;
54923;SDS011;40825;52.270;20.984;2023-03-14T00:58:19;11.50;;;5.00;;
54923;SDS011;40825;52.270;20.984;2023-03-14T01:00:45;12.20;;;4.60;;
54923;SDS011;40825;52.270;20.984;2023-03-14T01:03:11;12.70;;;5.20;;
54923;SDS011;40825;52.270;20.984;2023-03-14T01:05:37;8.80;;;4.00;;
54923;SDS011;40825;52.270;20.984;2023-03-14T01:08:04;11.20;;;4.30;;
54923;SDS011;40825;52.270;20.984;2023-03-14T01:10:31;10.40;;;4.20;;
54923;SDS011;40825;52.270;20.984;2023-03-14T01:12:57;12.70;;;4.70;;
54923;SDS011;40825;52.270;20.984;2023-03-14T01:15:23;11.60;;;4.60;;
54923;SDS011;40825;52.270;20.984;2023-03-14T01:17:48;10.20;;;4.50;;
54923;SDS011;40825;52.270;20.984;2023-03-14T01:20:14;13.50;;;5.10;;
54923;SDS011;40825;52.270;20.984;2023-03-14T01:22:40;12.10;;;5.10;;
54923;SDS011;40825;52.270;20.984;2023-03-14T01:25:09;10.30;;;4.60;;
54923;SDS011;40825;52.270;20.984;2023-03-14T01:27:37;12.80;;;4.80;;
54923;SDS011;40825;52.270;20.984;2023-03-14T01:30:03;12.70;;;4.30;;
54923;SDS011;40825;52.270;20.984;2023-03-14T01:32:29;13.60;;;5.60;;
54923;SDS011;40825;52.270;20.984;2023-03-14T01:34:55;10.40;;;5.40;;
54923;SDS011;40825;52.270;20.984;2023-03-14T01:37:21;10.50;;;5.10;;
54923;SDS011;40825;52.270;20.984;2023-03-14T01:39:47;11.70;;;4.10;;
54923;SDS011;40825;52.270;20.984;2023-03-14T01:42:13;13.90;;;5.60;;
54923;SDS011;40825;52.270;20.984;2023-03-14T01:44:55;11.60;;;4.80;;
54923;SDS011;40825;52.270;20.984;2023-03-14T01:47:22;13.40;;;4.50;;
54923;SDS011;40825;52.270;20.984;2023-03-14T01:49:50;10.00;;;4.90;;
54923;SDS011;40825;52.270;20.984;2023-03-14T01:52:31;10.40;;;4.00;;
54923;SDS011;40825;52.270;20.984;2023-03-14T01:55:15;12.20;;;4.40;;
54923;SDS011;40825;52.270;20.984;2023-03-14T01:57:45;10.00;;;4.20;;
54923;SDS011;40825;52.270;20.984;2023-03-14T02:00:17;11.70;;;4.40;;
54923;SDS011;40825;52.270;20.984;2023-03-14T02:02:53;10.90;;;4.70;;
54923;SDS011;40825;52.270;20.984;2023-03-14T02:05:23;10.30;;;4.90;;
54923;SDS011;40825;52.270;20.984;2023-03-14T02:07:52;10.10;;;4.00;;
54923;SDS011;40825;52.270;20.984;2023-03-14T02:10:21;10.60;;;4.10;;
54923;SDS011;40825;52.270;20.984;2023-03-14T02:12:49;9.60;;;4.50;;
54923;SDS011;40825;52.270;20.984;2023-03-14T02:15:17;10.70;;;4.80;;
54923;SDS011;40825;52.270;20.984;2023-03-14T02:17:43;9.70;;;4.80;;
54923;SDS011;40825;52.270;20.984;2023-03-14T02:22:48;11.40;;;4.30;;
54923;SDS011;40825;52.270;20.984;2023-03-14T02:27:46;11.80;;;4.80;;
54923;SDS011;40825;52.270;20.984;2023-03-14T02:30:14;11.00;;;4.30;;
54923;SDS011;40825;52.270;20.984;2023-03-14T02:32:46;12.80;;;4.40;;
54923;SDS011;40825;52.270;20.984;2023-03-14T02:35:14;11.30;;;4.10;;
54923;SDS011;40825;52.270;20.984;2023-03-14T02:37:46;11.60;;;5.10;;
54923;SDS011;40825;52.270;20.984;2023-03-14T02:40:17;10.40;;;3.60;;
54923;SDS011;40825;52.270;20.984;2023-03-14T02:42:43;12.20;;;4.40;;
54923;SDS011;40825;52.270;20.984;2023-03-14T02:47:34;9.80;;;3.70;;
54923;SDS011;40825;52.270;20.984;2023-03-14T02:50:05;8.80;;;3.40;;
54923;SDS011;40825;52.270;20.984;2023-03-14T02:52:33;8.50;;;3.50;;
54923;SDS011;40825;52.270;20.984;2023-03-14T02:54:59;9.30;;;4.20;;
54923;SDS011;40825;52.270;20.984;2023-03-14T02:57:24;9.80;;;3.40;;
54923;SDS011;40825;52.270;20.984;2023-03-14T02:59:50;9.10;;;4.30;;
54923;SDS011;40825;52.270;20.984;2023-03-14T03:02:15;8.80;;;3.40;;
54923;SDS011;40825;52.270;20.984;2023-03-14T03:04:41;9.90;;;3.50;;
54923;SDS011;40825;52.270;20.984;2023-03-14T03:07:07;8.80;;;3.60;;
54923;SDS011;40825;52.270;20.984;2023-03-14T03:09:33;8.10;;;3.70;;
54923;SDS011;40825;52.270;20.984;2023-03-14T03:11:58;10.50;;;3.50;;
54923;SDS011;40825;52.270;20.984;2023-03-14T03:14:24;10.70;;;5.00;;
54923;SDS011;40825;52.270;20.984;2023-03-14T03:16:50;9.00;;;3.70;;
54923;SDS011;40825;52.270;20.984;2023-03-14T03:19:15;10.00;;;3.70;;
54923;SDS011;40825;52.270;20.984;2023-03-14T03:21:43;8.90;;;3.50;;
54923;SDS011;40825;52.270;20.984;2023-03-14T03:24:09;8.40;;;3.30;;
54923;SDS011;40825;52.270;20.984;2023-03-14T03:26:35;9.60;;;4.00;;
54923;SDS011;40825;52.270;20.984;2023-03-14T03:29:01;8.30;;;3.50;;
54923;SDS011;40825;52.270;20.984;2023-03-14T03:31:26;9.70;;;3.30;;
54923;SDS011;40825;52.270;20.984;2023-03-14T03:33:52;9.60;;;3.50;;
54923;SDS011;40825;52.270;20.984;2023-03-14T03:36:21;9.80;;;3.50;;
54923;SDS011;40825;52.270;20.984;2023-03-14T03:38:50;10.20;;;3.40;;
54923;SDS011;40825;52.270;20.984;2023-03-14T03:41:16;9.20;;;3.70;;
54923;SDS011;40825;52.270;20.984;2023-03-14T03:43:41;7.40;;;3.20;;
54923;SDS011;40825;52.270;20.984;2023-03-14T03:46:07;8.80;;;3.70;;
54923;SDS011;40825;52.270;20.984;2023-03-14T03:48:33;8.20;;;3.60;;
54923;SDS011;40825;52.270;20.984;2023-03-14T03:50:59;10.00;;;3.80;;
54923;SDS011;40825;52.270;20.984;2023-03-14T03:53:25;8.00;;;2.80;;
54923;SDS011;40825;52.270;20.984;2023-03-14T03:55:50;8.00;;;3.30;;
54923;SDS011;40825;52.270;20.984;2023-03-14T03:58:16;9.00;;;2.90;;
54923;SDS011;40825;52.270;20.984;2023-03-14T04:00:41;8.00;;;3.10;;
54923;SDS011;40825;52.270;20.984;2023-03-14T04:03:07;8.80;;;3.30;;
54923;SDS011;40825;52.270;20.984;2023-03-14T04:05:32;9.20;;;3.30;;
54923;SDS011;40825;52.270;20.984;2023-03-14T04:07:59;9.00;;;3.00;;
54923;SDS011;40825;52.270;20.984;2023-03-14T04:10:25;7.50;;;2.80;;
54923;SDS011;40825;52.270;20.984;2023-03-14T04:12:51;8.00;;;2.80;;
54923;SDS011;40825;52.270;20.984;2023-03-14T04:15:17;8.70;;;3.40;;
54923;SDS011;40825;52.270;20.984;2023-03-14T04:17:43;8.90;;;3.00;;
54923;SDS011;40825;52.270;20.984;2023-03-14T04:20:09;7.80;;;3.00;;
54923;SDS011;40825;52.270;20.984;2023-03-14T04:22:36;7.00;;;3.20;;
54923;SDS011;40825;52.270;20.984;2023-03-14T04:25:03;9.10;;;3.30;;
54923;SDS011;40825;52.270;20.984;2023-03-14T04:27:29;9.30;;;3.40;;
54923;SDS011;40825;52.270;20.984;2023-03-14T04:29:55;6.50;;;2.80;;
54923;SDS011;40825;52.270;20.984;2023-03-14T04:32:21;8.00;;;3.50;;
54923;SDS011;40825;52.270;20.984;2023-03-14T04:34:47;8.90;;;3.20;;
54923;SDS011;40825;52.270;20.984;2023-03-14T04:37:13;7.90;;;3.10;;
54923;SDS011;40825;52.270;20.984;2023-03-14T04:39:38;6.80;;;3.20;;
54923;SDS011;40825;52.270;20.984;2023-03-14T04:42:04;7.40;;;3.20;;
54923;SDS011;40825;52.270;20.984;2023-03-14T04:44:29;7.20;;;2.50;;
54923;SDS011;40825;52.270;20.984;2023-03-14T04:46:55;8.10;;;3.00;;
54923;SDS011;40825;52.270;20.984;2023-03-14T04:49:20;9.00;;;2.80;;
54923;SDS011;40825;52.270;20.984;2023-03-14T04:51:46;7.40;;;2.80;;
54923;SDS011;40825;52.270;20.984;2023-03-14T04:54:12;9.10;;;3.20;;
54923;SDS011;40825;52.270;20.984;2023-03-14T04:56:37;7.50;;;3.00;;
54923;SDS011;40825;52.270;20.984;2023-03-14T04:59:03;9.80;;;3.80;;
54923;SDS011;40825;52.270;20.984;2023-03-14T05:01:29;8.70;;;2.70;;
54923;SDS011;40825;52.270;20.984;2023-03-14T05:03:54;8.00;;;3.00;;
54923;SDS011;40825;52.270;20.984;2023-03-14T05:06:20;7.40;;;3.00;;
54923;SDS011;40825;52.270;20.984;2023-03-14T05:08:45;7.20;;;2.60;;
54923;SDS011;40825;52.270;20.984;2023-03-14T05:11:11;7.70;;;3.00;;
54923;SDS011;40825;52.270;20.984;2023-03-14T05:13:38;7.80;;;3.10;;
54923;SDS011;40825;52.270;20.984;2023-03-14T05:16:07;7.70;;;2.90;;
54923;SDS011;40825;52.270;20.984;2023-03-14T05:18:34;7.30;;;2.80;;
54923;SDS011;40825;52.270;20.984;2023-03-14T05:21:00;7.40;;;3.10;;
54923;SDS011;40825;52.270;20.984;2023-03-14T05:23:26;8.10;;;3.10;;
54923;SDS011;40825;52.270;20.984;2023-03-14T05:25:52;8.60;;;3.30;;
54923;SDS011;40825;52.270;20.984;2023-03-14T05:28:18;7.50;;;2.90;;
54923;SDS011;40825;52.270;20.984;2023-03-14T05:30:43;7.10;;;2.80;;
54923;SDS011;40825;52.270;20.984;2023-03-14T05:33:09;6.70;;;3.20;;
54923;SDS011;40825;52.270;20.984;2023-03-14T05:35:34;6.50;;;2.50;;
54923;SDS011;40825;52.270;20.984;2023-03-14T05:38:00;7.20;;;2.40;;
54923;SDS011;40825;52.270;20.984;2023-03-14T05:40:25;8.80;;;3.00;;
54923;SDS011;40825;52.270;20.984;2023-03-14T05:42:51;8.70;;;3.10;;
54923;SDS011;40825;52.270;20.984;2023-03-14T05:45:17;7.40;;;3.00;;
54923;SDS011;40825;52.270;20.984;2023-03-14T05:47:43;9.10;;;2.40;;
54923;SDS011;40825;52.270;20.984;2023-03-14T05:50:09;5.90;;;2.50;;
54923;SDS011;40825;52.270;20.984;2023-03-14T05:52:35;10.40;;;2.20;;
54923;SDS011;40825;52.270;20.984;2023-03-14T05:55:00;6.10;;;2.60;;
54923;SDS011;40825;52.270;20.984;2023-03-14T05:57:26;8.10;;;2.90;;
54923;SDS011;40825;52.270;20.984;2023-03-14T05:59:51;6.20;;;2.40;;
54923;SDS011;40825;52.270;20.984;2023-03-14T06:02:17;5.60;;;2.40;;
54923;SDS011;40825;52.270;20.984;2023-03-14T06:04:42;8.10;;;3.00;;
54923;SDS011;40825;52.270;20.984;2023-03-14T06:07:08;7.50;;;2.50;;
54923;SDS011;40825;52.270;20.984;2023-03-14T06:09:34;6.60;;;2.70;;
54923;SDS011;40825;52.270;20.984;2023-03-14T06:11:59;6.70;;;2.70;;
54923;SDS011;40825;52.270;20.984;2023-03-14T06:14:24;7.20;;;2.30;;
54923;SDS011;40825;52.270;20.984;2023-03-14T06:16:50;6.90;;;2.30;;
54923;SDS011;40825;52.270;20.984;2023-03-14T06:19:15;6.30;;;2.50;;
54923;SDS011;40825;52.270;20.984;2023-03-14T06:21:42;6.90;;;2.30;;
54923;SDS011;40825;52.270;20.984;2023-03-14T06:24:07;6.70;;;2.80;;
54923;SDS011;40825;52.270;20.984;2023-03-14T06:26:36;5.90;;;2.60;;
54923;SDS011;40825;52.270;20.984;2023-03-14T06:29:01;7.50;;;2.70;;
54923;SDS011;40825;52.270;20.984;2023-03-14T06:31:31;6.90;;;2.60;;
54923;SDS011;40825;52.270;20.984;2023-03-14T06:33:58;9.80;;;2.50;;
54923;SDS011;40825;52.270;20.984;2023-03-14T06:36:24;6.50;;;2.50;;
54923;SDS011;40825;52.270;20.984;2023-03-14T06:38:50;7.40;;;2.20;;
54923;SDS011;40825;52.270;20.984;2023-03-14T06:41:15;6.60;;;2.70;;
54923;SDS011;40825;52.270;20.984;2023-03-14T06:43:41;7.50;;;2.70;;
54923;SDS011;40825;52.270;20.984;2023-03-14T06:46:07;5.00;;;2.30;;
54923;SDS011;40825;52.270;20.984;2023-03-14T06:48:32;7.00;;;2.60;;
54923;SDS011;40825;52.270;20.984;2023-03-14T06:50:59;6.40;;;2.80;;
54923;SDS011;40825;52.270;20.984;2023-03-14T06:53:25;6.10;;;2.90;;
54923;SDS011;40825;52.270;20.984;2023-03-14T06:55:51;8.10;;;2.90;;
54923;SDS011;40825;52.270;20.984;2023-03-14T06:58:16;9.10;;;3.10;;
54923;SDS011;40825;52.270;20.984;2023-03-14T07:00:42;6.00;;;2.30;;
54923;SDS011;40825;52.270;20.984;2023-03-14T07:03:08;8.10;;;3.20;;
54923;SDS011;40825;52.270;20.984;2023-03-14T07:05:36;8.50;;;3.20;;
54923;SDS011;40825;52.270;20.984;2023-03-14T07:08:06;8.30;;;3.10;;
54923;SDS011;40825;52.270;20.984;2023-03-14T07:10:35;8.10;;;2.90;;
54923;SDS011;40825;52.270;20.984;2023-03-14T07:13:01;7.20;;;3.20;;
54923;SDS011;40825;52.270;20.984;2023-03-14T07:15:26;6.60;;;2.60;;
54923;SDS011;40825;52.270;20.984;2023-03-14T07:17:52;6.10;;;2.80;;
54923;SDS011;40825;52.270;20.984;2023-03-14T07:20:17;9.60;;;2.90;;
54923;SDS011;40825;52.270;20.984;2023-03-14T07:22:43;7.20;;;3.30;;
54923;SDS011;40825;52.270;20.984;2023-03-14T07:25:08;9.40;;;2.90;;
54923;SDS011;40825;52.270;20.984;2023-03-14T07:30:02;9.50;;;2.90;;
54923;SDS011;40825;52.270;20.984;2023-03-14T07:32:28;8.50;;;3.40;;
54923;SDS011;40825;52.270;20.984;2023-03-14T07:34:54;8.40;;;3.50;;
54923;SDS011;40825;52.270;20.984;2023-03-14T07:37:19;6.90;;;3.20;;
54923;SDS011;40825;52.270;20.984;2023-03-14T07:39:45;6.40;;;2.80;;
54923;SDS011;40825;52.270;20.984;2023-03-14T07:42:10;6.70;;;3.40;;
54923;SDS011;40825;52.270;20.984;2023-03-14T07:44:36;7.60;;;2.80;;
54923;SDS011;40825;52.270;20.984;2023-03-14T07:47:01;6.50;;;2.70;;
54923;SDS011;40825;52.270;20.984;2023-03-14T07:49:27;8.70;;;3.40;;
54923;SDS011;40825;52.270;20.984;2023-03-14T07:51:53;7.40;;;2.60;;
54923;SDS011;40825;52.270;20.984;2023-03-14T07:54:19;7.20;;;2.50;;
54923;SDS011;40825;52.270;20.984;2023-03-14T07:56:45;9.80;;;3.10;;
54923;SDS011;40825;52.270;20.984;2023-03-14T07:59:10;8.20;;;2.60;;
54923;SDS011;40825;52.270;20.984;2023-03-14T08:01:37;7.90;;;2.50;;
54923;SDS011;40825;52.270;20.984;2023-03-14T08:04:03;8.30;;;2.90;;
54923;SDS011;40825;52.270;20.984;2023-03-14T08:06:29;6.30;;;2.40;;
54923;SDS011;40825;52.270;20.984;2023-03-14T08:08:55;6.30;;;2.30;;
54923;SDS011;40825;52.270;20.984;2023-03-14T08:11:20;6.10;;;2.70;;
54923;SDS011;40825;52.270;20.984;2023-03-14T08:13:46;5.60;;;2.50;;
54923;SDS011;40825;52.270;20.984;2023-03-14T08:16:15;6.40;;;2.50;;
54923;SDS011;40825;52.270;20.984;2023-03-14T08:18:42;8.10;;;3.10;;
54923;SDS011;40825;52.270;20.984;2023-03-14T08:21:08;7.20;;;3.00;;
54923;SDS011;40825;52.270;20.984;2023-03-14T08:23:35;6.50;;;2.50;;
54923;SDS011;40825;52.270;20.984;2023-03-14T08:26:01;8.50;;;2.60;;
54923;SDS011;40825;52.270;20.984;2023-03-14T08:28:27;6.80;;;2.70;;
54923;SDS011;40825;52.270;20.984;2023-03-14T08:30:56;10.00;;;3.20;;
54923;SDS011;40825;52.270;20.984;2023-03-14T08:33:22;8.30;;;3.00;;
54923;SDS011;40825;52.270;20.984;2023-03-14T08:35:51;7.40;;;3.10;;
54923;SDS011;40825;52.270;20.984;2023-03-14T08:38:21;6.60;;;2.80;;
54923;SDS011;40825;52.270;20.984;2023-03-14T08:40:46;8.20;;;2.90;;
54923;SDS011;40825;52.270;20.984;2023-03-14T08:43:12;6.80;;;2.20;;
54923;SDS011;40825;52.270;20.984;2023-03-14T08:45:38;7.70;;;2.50;;
54923;SDS011;40825;52.270;20.984;2023-03-14T08:48:03;7.90;;;3.30;;
54923;SDS011;40825;52.270;20.984;2023-03-14T08:50:29;7.80;;;2.90;;
54923;SDS011;40825;52.270;20.984;2023-03-14T08:52:54;6.50;;;2.40;;
54923;SDS011;40825;52.270;20.984;2023-03-14T08:55:20;7.40;;;2.60;;
54923;SDS011;40825;52.270;20.984;2023-03-14T08:57:46;6.90;;;2.90;;
54923;SDS011;40825;52.270;20.984;2023-03-14T09:00:11;6.90;;;2.30;;
54923;SDS011;40825;52.270;20.984;2023-03-14T09:05:06;5.80;;;2.10;;
54923;SDS011;40825;52.270;20.984;2023-03-14T09:07:32;7.00;;;2.40;;
54923;SDS011;40825;52.270;20.984;2023-03-14T09:09:58;6.80;;;2.30;;
54923;SDS011;40825;52.270;20.984;2023-03-14T09:12:23;7.00;;;2.30;;
54923;SDS011;40825;52.270;20.984;2023-03-14T09:14:48;7.20;;;2.50;;
54923;SDS011;40825;52.270;20.984;2023-03-14T09:17:14;7.50;;;2.70;;
54923;SDS011;40825;52.270;20.984;2023-03-14T09:19:40;6.50;;;2.60;;
54923;SDS011;40825;52.270;20.984;2023-03-14T09:22:06;6.70;;;2.80;;
54923;SDS011;40825;52.270;20.984;2023-03-14T09:24:32;6.30;;;2.30;;
54923;SDS011;40825;52.270;20.984;2023-03-14T09:26:57;5.40;;;2.70;;
54923;SDS011;40825;52.270;20.984;2023-03-14T09:29:23;8.00;;;2.70;;
54923;SDS011;40825;52.270;20.984;2023-03-14T09:31:49;4.90;;;2.40;;
54923;SDS011;40825;52.270;20.984;2023-03-14T09:34:15;6.80;;;3.30;;
54923;SDS011;40825;52.270;20.984;2023-03-14T09:36:40;7.30;;;2.60;;
54923;SDS011;40825;52.270;20.984;2023-03-14T09:39:06;7.40;;;2.00;;
54923;SDS011;40825;52.270;20.984;2023-03-14T09:41:39;7.50;;;2.50;;
54923;SDS011;40825;52.270;20.984;2023-03-14T09:44:12;5.50;;;2.20;;
54923;SDS011;40825;52.270;20.984;2023-03-14T09:46:42;7.30;;;2.50;;
54923;SDS011;40825;52.270;20.984;2023-03-14T09:49:23;4.60;;;1.70;;
54923;SDS011;40825;52.270;20.984;2023-03-14T09:51:53;6.50;;;2.10;;
54923;SDS011;40825;52.270;20.984;2023-03-14T09:56:55;6.50;;;2.50;;
54923;SDS011;40825;52.270;20.984;2023-03-14T09:59:20;6.60;;;2.40;;
54923;SDS011;40825;52.270;20.984;2023-03-14T10:01:46;5.40;;;2.10;;
54923;SDS011;40825;52.270;20.984;2023-03-14T10:04:15;5.80;;;2.30;;
54923;SDS011;40825;52.270;20.984;2023-03-14T10:06:48;5.70;;;2.20;;
54923;SDS011;40825;52.270;20.984;2023-03-14T10:09:17;6.80;;;2.10;;
54923;SDS011;40825;52.270;20.984;2023-03-14T10:11:51;6.30;;;1.90;;
54923;SDS011;40825;52.270;20.984;2023-03-14T10:14:28;6.80;;;2.30;;
54923;SDS011;40825;52.270;20.984;2023-03-14T10:17:04;7.00;;;2.20;;
54923;SDS011;40825;52.270;20.984;2023-03-14T10:19:31;4.90;;;2.00;;
54923;SDS011;40825;52.270;20.984;2023-03-14T10:21:57;5.80;;;1.60;;
54923;SDS011;40825;52.270;20.984;2023-03-14T10:24:33;6.80;;;2.50;;
54923;SDS011;40825;52.270;20.984;2023-03-14T10:27:02;5.00;;;1.70;;
54923;SDS011;40825;52.270;20.984;2023-03-14T10:29:51;7.30;;;2.20;;
54923;SDS011;40825;52.270;20.984;2023-03-14T10:32:20;9.00;;;2.30;;
54923;SDS011;40825;52.270;20.984;2023-03-14T10:35:05;5.70;;;2.60;;
54923;SDS011;40825;52.270;20.984;2023-03-14T10:37:34;5.10;;;1.80;;
54923;SDS011;40825;52.270;20.984;2023-03-14T10:40:01;6.50;;;2.60;;
54923;SDS011;40825;52.270;20.984;2023-03-14T10:42:34;6.40;;;2.50;;
54923;SDS011;40825;52.270;20.984;2023-03-14T10:45:54;6.10;;;2.30;;
54923;SDS011;40825;52.270;20.984;2023-03-14T10:47:54;8.60;;;2.20;;
54923;SDS011;40825;52.270;20.984;2023-03-14T10:50:25;6.60;;;2.20;;
54923;SDS011;40825;52.270;20.984;2023-03-14T10:52:55;5.10;;;1.90;;
54923;SDS011;40825;52.270;20.984;2023-03-14T10:55:23;6.50;;;2.70;;
54923;SDS011;40825;52.270;20.984;2023-03-14T10:57:51;6.20;;;2.40;;
54923;SDS011;40825;52.270;20.984;2023-03-14T11:00:18;6.10;;;2.30;;
54923;SDS011;40825;52.270;20.984;2023-03-14T11:02:49;6.60;;;2.30;;
54923;SDS011;40825;52.270;20.984;2023-03-14T11:08:15;5.50;;;1.70;;
54923;SDS011;40825;52.270;20.984;2023-03-14T11:10:45;5.20;;;2.20;;
54923;SDS011;40825;52.270;20.984;2023-03-14T11:28:53;7.00;;;2.30;;
54923;SDS011;40825;52.270;20.984;2023-03-14T11:31:41;5.20;;;1.90;;
54923;SDS011;40825;52.270;20.984;2023-03-14T11:34:17;9.70;;;2.50;;
54923;SDS011;40825;52.270;20.984;2023-03-14T11:37:06;5.70;;;2.10;;
54923;SDS011;40825;52.270;20.984;2023-03-14T11:39:40;7.20;;;2.30;;
54923;SDS011;40825;52.270;20.984;2023-03-14T11:42:11;6.80;;;1.80;;
54923;SDS011;40825;52.270;20.984;2023-03-14T11:44:40;6.60;;;2.80;;
54923;SDS011;40825;52.270;20.984;2023-03-14T11:50:02;6.60;;;3.30;;
54923;SDS011;40825;52.270;20.984;2023-03-14T11:52:44;5.80;;;2.70;;
54923;SDS011;40825;52.270;20.984;2023-03-14T11:55:29;5.60;;;2.30;;
54923;SDS011;40825;52.270;20.984;2023-03-14T11:58:00;7.60;;;2.50;;
54923;SDS011;40825;52.270;20.984;2023-03-14T12:00:34;6.40;;;2.40;;
54923;SDS011;40825;52.270;20.984;2023-03-14T12:05:43;7.00;;;2.30;;
54923;SDS011;40825;52.270;20.984;2023-03-14T12:11:21;8.30;;;3.90;;
54923;SDS011;40825;52.270;20.984;2023-03-14T12:17:04;7.70;;;2.40;;
54923;SDS011;40825;52.270;20.984;2023-03-14T12:20:00;7.00;;;2.50;;
54923;SDS011;40825;52.270;20.984;2023-03-14T12:22:34;6.40;;;2.90;;
54923;SDS011;40825;52.270;20.984;2023-03-14T12:25:17;7.60;;;3.00;;
54923;SDS011;40825;52.270;20.984;2023-03-14T12:27:47;7.40;;;2.90;;
54923;SDS011;40825;52.270;20.984;2023-03-14T12:38:05;7.30;;;3.60;;
54923;SDS011;40825;52.270;20.984;2023-03-14T12:40:39;9.20;;;3.60;;
54923;SDS011;40825;52.270;20.984;2023-03-14T12:43:29;6.70;;;2.50;;
54923;SDS011;40825;52.270;20.984;2023-03-14T12:46:15;6.90;;;3.50;;
54923;SDS011;40825;52.270;20.984;2023-03-14T12:51:33;9.20;;;4.60;;
54923;SDS011;40825;52.270;20.984;2023-03-14T12:56:28;9.20;;;4.60;;
54923;SDS011;40825;52.270;20.984;2023-03-14T13:04:43;7.60;;;2.90;;
54923;SDS011;40825;52.270;20.984;2023-03-14T13:07:13;7.50;;;3.20;;
54923;SDS011;40825;52.270;20.984;2023-03-14T13:10:16;7.90;;;3.00;;
54923;SDS011;40825;52.270;20.984;2023-03-14T13:15:24;9.90;;;3.80;;
54923;SDS011;40825;52.270;20.984;2023-03-14T13:17:50;8.50;;;3.50;;
54923;SDS011;40825;52.270;20.984;2023-03-14T13:20:23;9.60;;;3.70;;
54923;SDS011;40825;52.270;20.984;2023-03-14T13:22:53;8.90;;;3.70;;
54923;SDS011;40825;52.270;20.984;2023-03-14T13:25:19;7.00;;;3.40;;
54923;SDS011;40825;52.270;20.984;2023-03-14T13:27:46;10.60;;;4.70;;
54923;SDS011;40825;52.270;20.984;2023-03-14T13:30:20;11.60;;;3.60;;
54923;SDS011;40825;52.270;20.984;2023-03-14T13:32:49;9.30;;;4.20;;
54923;SDS011;40825;52.270;20.984;2023-03-14T13:35:20;8.90;;;4.20;;
54923;SDS011;40825;52.270;20.984;2023-03-14T13:37:46;8.30;;;3.40;;
54923;SDS011;40825;52.270;20.984;2023-03-14T13:40:20;11.30;;;5.00;;
54923;SDS011;40825;52.270;20.984;2023-03-14T13:42:58;9.30;;;3.80;;
54923;SDS011;40825;52.270;20.984;2023-03-14T13:45:26;11.40;;;4.10;;
54923;SDS011;40825;52.270;20.984;2023-03-14T13:47:52;10.60;;;4.50;;
54923;SDS011;40825;52.270;20.984;2023-03-14T13:50:17;10.40;;;4.90;;
54923;SDS011;40825;52.270;20.984;2023-03-14T13:52:44;9.80;;;4.10;;
54923;SDS011;40825;52.270;20.984;2023-03-14T13:55:15;10.80;;;4.10;;
54923;SDS011;40825;52.270;20.984;2023-03-14T13:57:49;10.30;;;5.10;;
54923;SDS011;40825;52.270;20.984;2023-03-14T14:02:45;10.20;;;4.40;;
54923;SDS011;40825;52.270;20.984;2023-03-14T14:05:13;11.10;;;4.40;;
54923;SDS011;40825;52.270;20.984;2023-03-14T14:07:39;9.80;;;5.20;;
54923;SDS011;40825;52.270;20.984;2023-03-14T14:10:11;10.30;;;4.30;;
54923;SDS011;40825;52.270;20.984;2023-03-14T14:12:55;10.80;;;5.10;;
54923;SDS011;40825;52.270;20.984;2023-03-14T14:15:28;11.90;;;4.20;;
54923;SDS011;40825;52.270;20.984;2023-03-14T14:17:57;8.80;;;4.40;;
54923;SDS011;40825;52.270;20.984;2023-03-14T14:20:31;11.90;;;4.50;;
54923;SDS011;40825;52.270;20.984;2023-03-14T14:23:04;11.10;;;4.90;;
54923;SDS011;40825;52.270;20.984;2023-03-14T14:25:31;10.90;;;4.70;;
54923;SDS011;40825;52.270;20.984;2023-03-14T14:27:58;9.90;;;4.30;;
54923;SDS011;40825;52.270;20.984;2023-03-14T14:30:28;12.60;;;4.50;;
54923;SDS011;40825;52.270;20.984;2023-03-14T14:33:09;11.50;;;4.70;;
54923;SDS011;40825;52.270;20.984;2023-03-14T14:35:49;13.20;;;5.60;;
54923;SDS011;40825;52.270;20.984;2023-03-14T14:38:18;12.60;;;6.40;;
54923;SDS011;40825;52.270;20.984;2023-03-14T14:40:46;13.00;;;4.80;;
54923;SDS011;40825;52.270;20.984;2023-03-14T14:43:19;10.10;;;4.60;;
54923;SDS011;40825;52.270;20.984;2023-03-14T14:45:53;8.80;;;4.00;;
54923;SDS011;40825;52.270;20.984;2023-03-14T14:48:22;8.80;;;4.30;;
54923;SDS011;40825;52.270;20.984;2023-03-14T14:55:54;7.90;;;4.10;;
54923;SDS011;40825;52.270;20.984;2023-03-14T14:58:29;10.60;;;4.20;;
54923;SDS011;40825;52.270;20.984;2023-03-14T15:01:02;9.80;;;4.00;;
54923;SDS011;40825;52.270;20.984;2023-03-14T15:03:33;8.50;;;4.30;;
54923;SDS011;40825;52.270;20.984;2023-03-14T15:06:01;9.90;;;4.80;;
54923;SDS011;40825;52.270;20.984;2023-03-14T15:08:27;11.80;;;4.10;;
54923;SDS011;40825;52.270;20.984;2023-03-14T15:10:54;9.60;;;4.10;;
54923;SDS011;40825;52.270;20.984;2023-03-14T15:13:20;11.50;;;3.80;;
54923;SDS011;40825;52.270;20.984;2023-03-14T15:15:46;10.20;;;5.10;;
54923;SDS011;40825;52.270;20.984;2023-03-14T15:18:13;9.50;;;4.10;;
54923;SDS011;40825;52.270;20.984;2023-03-14T15:20:42;9.30;;;3.90;;
54923;SDS011;40825;52.270;20.984;2023-03-14T15:23:12;8.70;;;4.20;;
54923;SDS011;40825;52.270;20.984;2023-03-14T15:25:40;9.20;;;4.30;;
54923;SDS011;40825;52.270;20.984;2023-03-14T15:28:19;8.70;;;4.10;;
54923;SDS011;40825;52.270;20.984;2023-03-14T15:30:47;8.70;;;4.30;;
54923;SDS011;40825;52.270;20.984;2023-03-14T15:33:17;9.40;;;3.80;;
54923;SDS011;40825;52.270;20.984;2023-03-14T15:35:43;11.90;;;4.90;;
54923;SDS011;40825;52.270;20.984;2023-03-14T15:38:10;9.10;;;3.80;;
54923;SDS011;40825;52.270;20.984;2023-03-14T15:40:37;8.10;;;4.00;;
54923;SDS011;40825;52.270;20.984;2023-03-14T15:43:03;8.20;;;3.50;;
54923;SDS011;40825;52.270;20.984;2023-03-14T15:45:28;9.60;;;3.90;;
54923;SDS011;40825;52.270;20.984;2023-03-14T15:47:55;11.10;;;5.10;;
54923;SDS011;40825;52.270;20.984;2023-03-14T15:50:20;8.00;;;4.00;;
54923;SDS011;40825;52.270;20.984;2023-03-14T15:52:46;9.80;;;4.60;;